sensor_id;sensor_type;location;lat;lon;timestamp;P1;durP1;ratioP1;P2;durP2;ratioP2
37237;SDS011;23129;49.662;8.448;2023-06-19T00:01:59;6.07;;;5.32;;
37237;SDS011;23129;49.662;8.448;2023-06-19T00:04:28;13.82;;;4.88;;
37237;SDS011;23129;49.662;8.448;2023-06-19T00:06:58;11.35;;;4.80;;
37237;SDS011;23129;49.662;8.448;2023-06-19T00:09:27;12.75;;;5.45;;
37237;SDS011;23129;49.662;8.448;2023-06-19T00:11:56;7.22;;;4.90;;
37237;SDS011;23129;49.662;8.448;2023-06-19T00:14:25;5.63;;;4.50;;
37237;SDS011;23129;49.662;8.448;2023-06-19T00:16:56;6.57;;;5.00;;
37237;SDS011;23129;49.662;8.448;2023-06-19T00:19:24;12.65;;;5.50;;
37237;SDS011;23129;49.662;8.448;2023-06-19T00:21:53;13.52;;;4.82;;
37237;SDS011;23129;49.662;8.448;2023-06-19T00:24:24;8.23;;;5.40;;
37237;SDS011;23129;49.662;8.448;2023-06-19T00:26:52;12.65;;;5.68;;
37237;SDS011;23129;49.662;8.448;2023-06-19T00:29:21;9.93;;;5.93;;
37237;SDS011;23129;49.662;8.448;2023-06-19T00:34:26;6.72;;;5.18;;
37237;SDS011;23129;49.662;8.448;2023-06-19T00:36:56;12.55;;;5.53;;
37237;SDS011;23129;49.662;8.448;2023-06-19T00:39:25;7.57;;;5.25;;
37237;SDS011;23129;49.662;8.448;2023-06-19T00:41:55;11.25;;;5.40;;
37237;SDS011;23129;49.662;8.448;2023-06-19T00:44:23;6.60;;;5.28;;
37237;SDS011;23129;49.662;8.448;2023-06-19T00:46:55;6.90;;;4.70;;
37237;SDS011;23129;49.662;8.448;2023-06-19T00:49:27;17.35;;;5.22;;
37237;SDS011;23129;49.662;8.448;2023-06-19T00:51:57;6.35;;;5.43;;
37237;SDS011;23129;49.662;8.448;2023-06-19T00:54:26;9.15;;;5.30;;
37237;SDS011;23129;49.662;8.448;2023-06-19T00:56:57;9.57;;;5.30;;
37237;SDS011;23129;49.662;8.448;2023-06-19T00:59:26;10.75;;;5.22;;
37237;SDS011;23129;49.662;8.448;2023-06-19T01:01:56;6.88;;;4.85;;
37237;SDS011;23129;49.662;8.448;2023-06-19T01:04:27;11.82;;;5.88;;
37237;SDS011;23129;49.662;8.448;2023-06-19T01:06:57;9.98;;;5.20;;
37237;SDS011;23129;49.662;8.448;2023-06-19T01:12:06;7.47;;;5.28;;
37237;SDS011;23129;49.662;8.448;2023-06-19T01:14:43;10.07;;;5.85;;
37237;SDS011;23129;49.662;8.448;2023-06-19T01:17:23;9.05;;;5.03;;
37237;SDS011;23129;49.662;8.448;2023-06-19T01:19:53;5.78;;;5.18;;
37237;SDS011;23129;49.662;8.448;2023-06-19T01:22:25;9.55;;;5.82;;
37237;SDS011;23129;49.662;8.448;2023-06-19T01:24:57;8.48;;;5.97;;
37237;SDS011;23129;49.662;8.448;2023-06-19T01:27:27;9.13;;;5.78;;
37237;SDS011;23129;49.662;8.448;2023-06-19T01:29:58;12.02;;;6.63;;
37237;SDS011;23129;49.662;8.448;2023-06-19T01:32:31;7.63;;;6.25;;
37237;SDS011;23129;49.662;8.448;2023-06-19T01:35:07;8.93;;;5.28;;
37237;SDS011;23129;49.662;8.448;2023-06-19T01:37:38;11.18;;;5.38;;
37237;SDS011;23129;49.662;8.448;2023-06-19T01:40:09;8.75;;;5.63;;
37237;SDS011;23129;49.662;8.448;2023-06-19T01:42:38;11.18;;;6.43;;
37237;SDS011;23129;49.662;8.448;2023-06-19T01:45:08;9.55;;;6.13;;
37237;SDS011;23129;49.662;8.448;2023-06-19T01:47:38;6.72;;;5.68;;
37237;SDS011;23129;49.662;8.448;2023-06-19T01:50:07;7.35;;;5.90;;
37237;SDS011;23129;49.662;8.448;2023-06-19T01:52:40;12.68;;;5.93;;
37237;SDS011;23129;49.662;8.448;2023-06-19T01:55:08;12.15;;;6.18;;
37237;SDS011;23129;49.662;8.448;2023-06-19T01:57:38;9.80;;;5.63;;
37237;SDS011;23129;49.662;8.448;2023-06-19T02:00:08;8.18;;;5.75;;
37237;SDS011;23129;49.662;8.448;2023-06-19T02:02:41;8.98;;;5.82;;
37237;SDS011;23129;49.662;8.448;2023-06-19T02:05:10;10.10;;;6.07;;
37237;SDS011;23129;49.662;8.448;2023-06-19T02:07:41;8.27;;;5.40;;
37237;SDS011;23129;49.662;8.448;2023-06-19T02:10:09;9.45;;;5.85;;
37237;SDS011;23129;49.662;8.448;2023-06-19T02:12:38;8.30;;;6.38;;
37237;SDS011;23129;49.662;8.448;2023-06-19T02:15:07;9.43;;;5.85;;
37237;SDS011;23129;49.662;8.448;2023-06-19T02:17:36;9.32;;;6.03;;
37237;SDS011;23129;49.662;8.448;2023-06-19T02:20:05;7.97;;;5.93;;
37237;SDS011;23129;49.662;8.448;2023-06-19T02:22:35;10.35;;;5.72;;
37237;SDS011;23129;49.662;8.448;2023-06-19T02:25:06;6.95;;;5.88;;
37237;SDS011;23129;49.662;8.448;2023-06-19T02:27:35;5.93;;;5.28;;
37237;SDS011;23129;49.662;8.448;2023-06-19T02:30:04;8.55;;;5.63;;
37237;SDS011;23129;49.662;8.448;2023-06-19T02:32:34;6.13;;;5.10;;
37237;SDS011;23129;49.662;8.448;2023-06-19T02:35:03;6.10;;;5.30;;
37237;SDS011;23129;49.662;8.448;2023-06-19T02:37:34;6.03;;;5.10;;
37237;SDS011;23129;49.662;8.448;2023-06-19T02:40:08;10.65;;;5.55;;
37237;SDS011;23129;49.662;8.448;2023-06-19T02:42:37;7.75;;;5.60;;
37237;SDS011;23129;49.662;8.448;2023-06-19T02:45:06;8.15;;;4.95;;
37237;SDS011;23129;49.662;8.448;2023-06-19T02:47:35;8.68;;;5.38;;
37237;SDS011;23129;49.662;8.448;2023-06-19T02:50:04;8.50;;;5.82;;
37237;SDS011;23129;49.662;8.448;2023-06-19T02:52:35;8.38;;;6.07;;
37237;SDS011;23129;49.662;8.448;2023-06-19T02:55:04;12.88;;;6.28;;
37237;SDS011;23129;49.662;8.448;2023-06-19T02:57:35;16.00;;;5.68;;
37237;SDS011;23129;49.662;8.448;2023-06-19T03:00:04;9.02;;;5.55;;
37237;SDS011;23129;49.662;8.448;2023-06-19T03:02:35;5.85;;;5.28;;
37237;SDS011;23129;49.662;8.448;2023-06-19T03:05:04;8.30;;;5.75;;
37237;SDS011;23129;49.662;8.448;2023-06-19T03:07:33;8.57;;;6.25;;
37237;SDS011;23129;49.662;8.448;2023-06-19T03:10:02;10.90;;;5.88;;
37237;SDS011;23129;49.662;8.448;2023-06-19T03:12:31;11.23;;;6.57;;
37237;SDS011;23129;49.662;8.448;2023-06-19T03:15:02;7.03;;;6.18;;
37237;SDS011;23129;49.662;8.448;2023-06-19T03:17:33;11.73;;;6.32;;
37237;SDS011;23129;49.662;8.448;2023-06-19T03:20:04;8.13;;;6.80;;
37237;SDS011;23129;49.662;8.448;2023-06-19T03:22:42;9.63;;;6.53;;
37237;SDS011;23129;49.662;8.448;2023-06-19T03:25:13;8.40;;;7.30;;
37237;SDS011;23129;49.662;8.448;2023-06-19T03:27:41;9.95;;;6.70;;
37237;SDS011;23129;49.662;8.448;2023-06-19T03:30:12;10.35;;;6.28;;
37237;SDS011;23129;49.662;8.448;2023-06-19T03:32:41;8.45;;;7.47;;
37237;SDS011;23129;49.662;8.448;2023-06-19T03:35:19;16.13;;;7.00;;
37237;SDS011;23129;49.662;8.448;2023-06-19T03:37:48;11.75;;;6.28;;
37237;SDS011;23129;49.662;8.448;2023-06-19T03:40:16;10.07;;;6.45;;
37237;SDS011;23129;49.662;8.448;2023-06-19T03:42:47;7.68;;;6.60;;
37237;SDS011;23129;49.662;8.448;2023-06-19T03:45:18;12.57;;;6.65;;
37237;SDS011;23129;49.662;8.448;2023-06-19T03:47:47;13.68;;;6.95;;
37237;SDS011;23129;49.662;8.448;2023-06-19T03:50:15;9.35;;;6.50;;
37237;SDS011;23129;49.662;8.448;2023-06-19T03:52:50;7.70;;;6.60;;
37237;SDS011;23129;49.662;8.448;2023-06-19T03:55:19;11.60;;;6.05;;
37237;SDS011;23129;49.662;8.448;2023-06-19T03:57:48;15.07;;;6.20;;
37237;SDS011;23129;49.662;8.448;2023-06-19T04:00:18;8.10;;;5.60;;
37237;SDS011;23129;49.662;8.448;2023-06-19T04:02:49;6.82;;;5.22;;
37237;SDS011;23129;49.662;8.448;2023-06-19T04:05:18;6.18;;;5.55;;
37237;SDS011;23129;49.662;8.448;2023-06-19T04:07:48;5.13;;;3.97;;
37237;SDS011;23129;49.662;8.448;2023-06-19T04:10:16;13.68;;;4.15;;
37237;SDS011;23129;49.662;8.448;2023-06-19T04:12:45;3.42;;;2.97;;
37237;SDS011;23129;49.662;8.448;2023-06-19T04:15:14;5.03;;;2.65;;
37237;SDS011;23129;49.662;8.448;2023-06-19T04:17:45;4.18;;;3.65;;
37237;SDS011;23129;49.662;8.448;2023-06-19T04:20:13;4.25;;;2.80;;
37237;SDS011;23129;49.662;8.448;2023-06-19T04:22:45;9.60;;;3.20;;
37237;SDS011;23129;49.662;8.448;2023-06-19T04:25:14;7.22;;;3.22;;
37237;SDS011;23129;49.662;8.448;2023-06-19T04:27:42;7.38;;;3.17;;
37237;SDS011;23129;49.662;8.448;2023-06-19T04:30:11;4.47;;;2.78;;
37237;SDS011;23129;49.662;8.448;2023-06-19T04:32:40;5.85;;;3.22;;
37237;SDS011;23129;49.662;8.448;2023-06-19T04:35:10;5.53;;;3.35;;
37237;SDS011;23129;49.662;8.448;2023-06-19T04:37:39;4.32;;;3.40;;
37237;SDS011;23129;49.662;8.448;2023-06-19T04:40:08;5.18;;;3.70;;
37237;SDS011;23129;49.662;8.448;2023-06-19T04:42:37;4.00;;;3.00;;
37237;SDS011;23129;49.662;8.448;2023-06-19T04:45:06;6.80;;;3.17;;
37237;SDS011;23129;49.662;8.448;2023-06-19T04:47:36;4.15;;;3.10;;
37237;SDS011;23129;49.662;8.448;2023-06-19T04:50:21;17.77;;;3.45;;
37237;SDS011;23129;49.662;8.448;2023-06-19T04:52:50;5.13;;;3.30;;
37237;SDS011;23129;49.662;8.448;2023-06-19T04:55:18;6.10;;;3.20;;
37237;SDS011;23129;49.662;8.448;2023-06-19T04:57:47;4.10;;;3.10;;
37237;SDS011;23129;49.662;8.448;2023-06-19T05:00:16;5.72;;;3.33;;
37237;SDS011;23129;49.662;8.448;2023-06-19T05:02:46;4.18;;;3.30;;
37237;SDS011;23129;49.662;8.448;2023-06-19T05:05:15;5.20;;;3.20;;
37237;SDS011;23129;49.662;8.448;2023-06-19T05:07:49;4.25;;;2.78;;
37237;SDS011;23129;49.662;8.448;2023-06-19T05:10:17;4.78;;;2.65;;
37237;SDS011;23129;49.662;8.448;2023-06-19T05:12:45;6.18;;;3.10;;
37237;SDS011;23129;49.662;8.448;2023-06-19T05:15:14;3.70;;;3.40;;
37237;SDS011;23129;49.662;8.448;2023-06-19T05:17:42;9.23;;;3.80;;
37237;SDS011;23129;49.662;8.448;2023-06-19T05:20:13;4.40;;;3.40;;
37237;SDS011;23129;49.662;8.448;2023-06-19T05:22:42;3.30;;;2.97;;
37237;SDS011;23129;49.662;8.448;2023-06-19T05:25:12;3.70;;;3.35;;
37237;SDS011;23129;49.662;8.448;2023-06-19T05:27:40;3.75;;;3.40;;
37237;SDS011;23129;49.662;8.448;2023-06-19T05:30:09;6.47;;;2.78;;
37237;SDS011;23129;49.662;8.448;2023-06-19T05:32:39;10.50;;;3.20;;
37237;SDS011;23129;49.662;8.448;2023-06-19T05:35:08;6.18;;;2.88;;
37237;SDS011;23129;49.662;8.448;2023-06-19T05:37:40;4.13;;;3.10;;
37237;SDS011;23129;49.662;8.448;2023-06-19T05:40:11;4.97;;;2.90;;
37237;SDS011;23129;49.662;8.448;2023-06-19T05:42:40;4.05;;;3.10;;
37237;SDS011;23129;49.662;8.448;2023-06-19T05:45:09;6.25;;;3.20;;
37237;SDS011;23129;49.662;8.448;2023-06-19T05:47:38;3.90;;;3.30;;
37237;SDS011;23129;49.662;8.448;2023-06-19T05:50:07;3.40;;;3.10;;
37237;SDS011;23129;49.662;8.448;2023-06-19T05:52:36;6.60;;;3.10;;
37237;SDS011;23129;49.662;8.448;2023-06-19T05:55:09;10.98;;;3.20;;
37237;SDS011;23129;49.662;8.448;2023-06-19T05:57:39;12.50;;;3.08;;
37237;SDS011;23129;49.662;8.448;2023-06-19T06:00:08;6.43;;;2.80;;
37237;SDS011;23129;49.662;8.448;2023-06-19T06:02:40;5.53;;;2.45;;
37237;SDS011;23129;49.662;8.448;2023-06-19T06:05:09;4.22;;;2.92;;
37237;SDS011;23129;49.662;8.448;2023-06-19T06:07:38;5.32;;;2.72;;
37237;SDS011;23129;49.662;8.448;2023-06-19T06:10:07;8.32;;;2.63;;
37237;SDS011;23129;49.662;8.448;2023-06-19T06:12:38;9.15;;;3.03;;
37237;SDS011;23129;49.662;8.448;2023-06-19T06:15:06;2.83;;;2.63;;
37237;SDS011;23129;49.662;8.448;2023-06-19T06:17:35;5.97;;;3.03;;
37237;SDS011;23129;49.662;8.448;2023-06-19T06:20:04;5.22;;;2.58;;
37237;SDS011;23129;49.662;8.448;2023-06-19T06:22:38;4.03;;;2.60;;
37237;SDS011;23129;49.662;8.448;2023-06-19T06:25:07;5.70;;;3.10;;
37237;SDS011;23129;49.662;8.448;2023-06-19T06:27:40;6.18;;;3.25;;
37237;SDS011;23129;49.662;8.448;2023-06-19T06:30:09;4.07;;;3.28;;
37237;SDS011;23129;49.662;8.448;2023-06-19T06:32:39;5.28;;;2.70;;
37237;SDS011;23129;49.662;8.448;2023-06-19T06:35:08;4.32;;;3.17;;
37237;SDS011;23129;49.662;8.448;2023-06-19T06:37:37;6.13;;;2.88;;
37237;SDS011;23129;49.662;8.448;2023-06-19T06:40:07;6.07;;;2.75;;
37237;SDS011;23129;49.662;8.448;2023-06-19T06:42:37;4.55;;;3.00;;
37237;SDS011;23129;49.662;8.448;2023-06-19T06:45:08;4.63;;;2.92;;
37237;SDS011;23129;49.662;8.448;2023-06-19T06:47:37;3.72;;;2.88;;
37237;SDS011;23129;49.662;8.448;2023-06-19T06:50:07;4.50;;;2.55;;
37237;SDS011;23129;49.662;8.448;2023-06-19T06:52:36;3.08;;;2.78;;
37237;SDS011;23129;49.662;8.448;2023-06-19T06:55:06;3.13;;;2.25;;
37237;SDS011;23129;49.662;8.448;2023-06-19T06:57:36;3.42;;;2.50;;
37237;SDS011;23129;49.662;8.448;2023-06-19T07:00:05;2.83;;;2.63;;
37237;SDS011;23129;49.662;8.448;2023-06-19T07:02:37;5.82;;;2.60;;
37237;SDS011;23129;49.662;8.448;2023-06-19T07:05:08;3.28;;;2.97;;
37237;SDS011;23129;49.662;8.448;2023-06-19T07:07:37;4.63;;;2.67;;
37237;SDS011;23129;49.662;8.448;2023-06-19T07:10:06;6.18;;;2.70;;
37237;SDS011;23129;49.662;8.448;2023-06-19T07:12:43;4.72;;;2.90;;
37237;SDS011;23129;49.662;8.448;2023-06-19T07:15:14;4.18;;;3.20;;
37237;SDS011;23129;49.662;8.448;2023-06-19T07:17:43;10.63;;;2.92;;
37237;SDS011;23129;49.662;8.448;2023-06-19T07:20:12;4.93;;;3.10;;
37237;SDS011;23129;49.662;8.448;2023-06-19T07:22:41;4.82;;;2.80;;
37237;SDS011;23129;49.662;8.448;2023-06-19T07:25:10;4.35;;;3.22;;
37237;SDS011;23129;49.662;8.448;2023-06-19T07:27:39;4.15;;;2.70;;
37237;SDS011;23129;49.662;8.448;2023-06-19T07:30:09;7.55;;;3.00;;
37237;SDS011;23129;49.662;8.448;2023-06-19T07:32:43;2.72;;;2.53;;
37237;SDS011;23129;49.662;8.448;2023-06-19T07:35:12;3.15;;;2.90;;
37237;SDS011;23129;49.662;8.448;2023-06-19T07:37:40;4.22;;;3.10;;
37237;SDS011;23129;49.662;8.448;2023-06-19T07:40:09;19.85;;;4.05;;
37237;SDS011;23129;49.662;8.448;2023-06-19T07:42:39;5.63;;;2.80;;
37237;SDS011;23129;49.662;8.448;2023-06-19T07:45:11;3.17;;;2.85;;
37237;SDS011;23129;49.662;8.448;2023-06-19T07:47:40;4.43;;;3.30;;
37237;SDS011;23129;49.662;8.448;2023-06-19T07:50:10;4.70;;;2.97;;
37237;SDS011;23129;49.662;8.448;2023-06-19T07:52:38;3.60;;;2.70;;
37237;SDS011;23129;49.662;8.448;2023-06-19T07:55:07;3.25;;;2.95;;
37237;SDS011;23129;49.662;8.448;2023-06-19T07:57:36;6.43;;;2.85;;
37237;SDS011;23129;49.662;8.448;2023-06-19T08:00:05;5.35;;;2.90;;
37237;SDS011;23129;49.662;8.448;2023-06-19T08:02:38;6.95;;;3.47;;
37237;SDS011;23129;49.662;8.448;2023-06-19T08:05:08;3.55;;;2.92;;
37237;SDS011;23129;49.662;8.448;2023-06-19T08:07:38;16.25;;;3.38;;
37237;SDS011;23129;49.662;8.448;2023-06-19T08:10:07;4.18;;;3.20;;
37237;SDS011;23129;49.662;8.448;2023-06-19T08:12:40;3.50;;;3.20;;
37237;SDS011;23129;49.662;8.448;2023-06-19T08:15:10;9.93;;;2.97;;
37237;SDS011;23129;49.662;8.448;2023-06-19T08:17:40;4.18;;;3.20;;
37237;SDS011;23129;49.662;8.448;2023-06-19T08:20:10;4.13;;;3.80;;
37237;SDS011;23129;49.662;8.448;2023-06-19T08:22:39;7.38;;;3.17;;
37237;SDS011;23129;49.662;8.448;2023-06-19T08:25:08;6.03;;;3.65;;
37237;SDS011;23129;49.662;8.448;2023-06-19T08:27:37;4.32;;;3.28;;
37237;SDS011;23129;49.662;8.448;2023-06-19T08:30:06;4.07;;;3.35;;
37237;SDS011;23129;49.662;8.448;2023-06-19T08:32:35;5.45;;;4.00;;
37237;SDS011;23129;49.662;8.448;2023-06-19T08:35:04;3.47;;;3.10;;
37237;SDS011;23129;49.662;8.448;2023-06-19T08:37:35;4.35;;;3.40;;
37237;SDS011;23129;49.662;8.448;2023-06-19T08:40:04;5.57;;;2.97;;
37237;SDS011;23129;49.662;8.448;2023-06-19T08:42:36;4.45;;;3.33;;
37237;SDS011;23129;49.662;8.448;2023-06-19T08:45:06;4.50;;;3.40;;
37237;SDS011;23129;49.662;8.448;2023-06-19T08:47:37;5.75;;;3.05;;
37237;SDS011;23129;49.662;8.448;2023-06-19T08:50:07;5.13;;;3.70;;
37237;SDS011;23129;49.662;8.448;2023-06-19T08:52:38;3.42;;;3.13;;
37237;SDS011;23129;49.662;8.448;2023-06-19T08:55:07;9.40;;;3.65;;
37237;SDS011;23129;49.662;8.448;2023-06-19T08:57:37;3.65;;;2.90;;
37237;SDS011;23129;49.662;8.448;2023-06-19T09:00:07;4.30;;;3.35;;
37237;SDS011;23129;49.662;8.448;2023-06-19T09:02:48;11.48;;;3.30;;
37237;SDS011;23129;49.662;8.448;2023-06-19T09:05:37;3.38;;;2.97;;
37237;SDS011;23129;49.662;8.448;2023-06-19T09:08:18;3.50;;;3.30;;
37237;SDS011;23129;49.662;8.448;2023-06-19T09:10:54;3.65;;;3.28;;
37237;SDS011;23129;49.662;8.448;2023-06-19T09:13:24;4.53;;;2.97;;
37237;SDS011;23129;49.662;8.448;2023-06-19T09:15:58;3.33;;;3.13;;
37237;SDS011;23129;49.662;8.448;2023-06-19T09:18:29;6.43;;;2.67;;
37237;SDS011;23129;49.662;8.448;2023-06-19T09:20:58;5.82;;;3.17;;
37237;SDS011;23129;49.662;8.448;2023-06-19T09:23:29;5.13;;;3.08;;
37237;SDS011;23129;49.662;8.448;2023-06-19T09:26:01;3.63;;;3.10;;
37237;SDS011;23129;49.662;8.448;2023-06-19T09:28:32;4.38;;;3.30;;
37237;SDS011;23129;49.662;8.448;2023-06-19T09:31:07;4.03;;;3.00;;
37237;SDS011;23129;49.662;8.448;2023-06-19T09:33:37;3.22;;;2.90;;
37237;SDS011;23129;49.662;8.448;2023-06-19T09:36:08;3.90;;;2.80;;
37237;SDS011;23129;49.662;8.448;2023-06-19T09:38:38;3.50;;;3.20;;
37237;SDS011;23129;49.662;8.448;2023-06-19T09:41:10;7.33;;;2.87;;
37237;SDS011;23129;49.662;8.448;2023-06-19T09:43:41;3.00;;;2.80;;
37237;SDS011;23129;49.662;8.448;2023-06-19T09:46:14;6.75;;;2.90;;
37237;SDS011;23129;49.662;8.448;2023-06-19T09:48:45;3.10;;;2.70;;
37237;SDS011;23129;49.662;8.448;2023-06-19T09:51:17;4.93;;;3.17;;
37237;SDS011;23129;49.662;8.448;2023-06-19T09:53:53;3.80;;;3.50;;
37237;SDS011;23129;49.662;8.448;2023-06-19T09:56:22;2.78;;;2.58;;
37237;SDS011;23129;49.662;8.448;2023-06-19T09:58:54;3.17;;;2.90;;
37237;SDS011;23129;49.662;8.448;2023-06-19T10:01:27;4.28;;;2.83;;
37237;SDS011;23129;49.662;8.448;2023-06-19T10:04:03;5.03;;;3.13;;
37237;SDS011;23129;49.662;8.448;2023-06-19T10:06:42;4.00;;;3.15;;
37237;SDS011;23129;49.662;8.448;2023-06-19T10:09:14;3.80;;;3.47;;
37237;SDS011;23129;49.662;8.448;2023-06-19T10:11:46;6.77;;;2.70;;
37237;SDS011;23129;49.662;8.448;2023-06-19T10:14:18;6.15;;;3.40;;
37237;SDS011;23129;49.662;8.448;2023-06-19T10:16:47;5.50;;;2.92;;
37237;SDS011;23129;49.662;8.448;2023-06-19T10:19:17;5.22;;;3.58;;
37237;SDS011;23129;49.662;8.448;2023-06-19T10:21:48;6.80;;;3.50;;
37237;SDS011;23129;49.662;8.448;2023-06-19T10:24:22;3.55;;;2.92;;
37237;SDS011;23129;49.662;8.448;2023-06-19T10:26:56;2.95;;;2.70;;
37237;SDS011;23129;49.662;8.448;2023-06-19T10:29:37;3.35;;;2.75;;
37237;SDS011;23129;49.662;8.448;2023-06-19T10:32:12;3.40;;;2.60;;
37237;SDS011;23129;49.662;8.448;2023-06-19T10:34:44;5.38;;;2.70;;
37237;SDS011;23129;49.662;8.448;2023-06-19T10:37:15;6.05;;;3.10;;
37237;SDS011;23129;49.662;8.448;2023-06-19T10:39:45;5.15;;;2.45;;
37237;SDS011;23129;49.662;8.448;2023-06-19T10:42:14;3.25;;;2.95;;
37237;SDS011;23129;49.662;8.448;2023-06-19T10:44:43;3.35;;;2.65;;
37237;SDS011;23129;49.662;8.448;2023-06-19T10:47:11;4.60;;;3.70;;
37237;SDS011;23129;49.662;8.448;2023-06-19T10:49:42;7.15;;;3.03;;
37237;SDS011;23129;49.662;8.448;2023-06-19T10:52:11;3.20;;;2.90;;
37237;SDS011;23129;49.662;8.448;2023-06-19T10:54:42;3.17;;;2.88;;
37237;SDS011;23129;49.662;8.448;2023-06-19T10:57:12;2.88;;;2.67;;
37237;SDS011;23129;49.662;8.448;2023-06-19T10:59:41;7.20;;;3.05;;
37237;SDS011;23129;49.662;8.448;2023-06-19T11:02:09;6.88;;;2.78;;
37237;SDS011;23129;49.662;8.448;2023-06-19T11:04:39;2.90;;;2.60;;
37237;SDS011;23129;49.662;8.448;2023-06-19T11:07:07;4.43;;;2.95;;
37237;SDS011;23129;49.662;8.448;2023-06-19T11:09:36;7.07;;;3.33;;
37237;SDS011;23129;49.662;8.448;2023-06-19T11:12:08;5.00;;;2.95;;
37237;SDS011;23129;49.662;8.448;2023-06-19T11:14:38;4.68;;;2.45;;
37237;SDS011;23129;49.662;8.448;2023-06-19T11:17:08;3.25;;;2.50;;
37237;SDS011;23129;49.662;8.448;2023-06-19T11:19:38;3.63;;;3.00;;
37237;SDS011;23129;49.662;8.448;2023-06-19T11:22:08;3.70;;;2.38;;
37237;SDS011;23129;49.662;8.448;2023-06-19T11:24:42;6.75;;;2.38;;
37237;SDS011;23129;49.662;8.448;2023-06-19T11:29:58;4.05;;;2.35;;
37237;SDS011;23129;49.662;8.448;2023-06-19T11:32:30;8.40;;;3.03;;
37237;SDS011;23129;49.662;8.448;2023-06-19T11:35:04;3.90;;;2.23;;
37237;SDS011;23129;49.662;8.448;2023-06-19T11:37:35;9.25;;;3.20;;
37237;SDS011;23129;49.662;8.448;2023-06-19T11:40:04;5.05;;;2.60;;
37237;SDS011;23129;49.662;8.448;2023-06-19T11:42:46;3.85;;;3.03;;
37237;SDS011;23129;49.662;8.448;2023-06-19T11:45:17;2.17;;;2.05;;
37237;SDS011;23129;49.662;8.448;2023-06-19T11:47:45;4.13;;;2.78;;
37237;SDS011;23129;49.662;8.448;2023-06-19T11:50:15;8.48;;;2.65;;
37237;SDS011;23129;49.662;8.448;2023-06-19T11:52:46;6.82;;;2.47;;
37237;SDS011;23129;49.662;8.448;2023-06-19T11:55:15;4.10;;;2.50;;
37237;SDS011;23129;49.662;8.448;2023-06-19T11:57:43;8.98;;;2.75;;
37237;SDS011;23129;49.662;8.448;2023-06-19T12:00:13;2.38;;;2.17;;
37237;SDS011;23129;49.662;8.448;2023-06-19T12:02:45;2.58;;;2.38;;
37237;SDS011;23129;49.662;8.448;2023-06-19T12:05:14;2.90;;;2.55;;
37237;SDS011;23129;49.662;8.448;2023-06-19T12:07:43;3.28;;;2.03;;
37237;SDS011;23129;49.662;8.448;2023-06-19T12:10:12;3.05;;;2.45;;
37237;SDS011;23129;49.662;8.448;2023-06-19T12:12:41;3.97;;;2.45;;
37237;SDS011;23129;49.662;8.448;2023-06-19T12:15:10;2.50;;;2.13;;
37237;SDS011;23129;49.662;8.448;2023-06-19T12:17:38;4.20;;;2.30;;
37237;SDS011;23129;49.662;8.448;2023-06-19T12:20:09;1.75;;;1.65;;
37237;SDS011;23129;49.662;8.448;2023-06-19T12:22:40;2.47;;;1.83;;
37237;SDS011;23129;49.662;8.448;2023-06-19T12:25:09;5.22;;;1.95;;
37237;SDS011;23129;49.662;8.448;2023-06-19T12:27:38;1.60;;;1.50;;
37237;SDS011;23129;49.662;8.448;2023-06-19T12:30:08;3.08;;;2.15;;
37237;SDS011;23129;49.662;8.448;2023-06-19T12:32:37;5.80;;;2.20;;
37237;SDS011;23129;49.662;8.448;2023-06-19T12:35:06;1.85;;;1.73;;
37237;SDS011;23129;49.662;8.448;2023-06-19T12:37:36;3.08;;;1.80;;
37237;SDS011;23129;49.662;8.448;2023-06-19T12:40:06;3.10;;;1.70;;
37237;SDS011;23129;49.662;8.448;2023-06-19T12:42:37;3.25;;;2.17;;
37237;SDS011;23129;49.662;8.448;2023-06-19T12:45:06;3.03;;;1.90;;
37237;SDS011;23129;49.662;8.448;2023-06-19T12:47:36;1.58;;;1.48;;
37237;SDS011;23129;49.662;8.448;2023-06-19T12:50:05;2.90;;;2.13;;
37237;SDS011;23129;49.662;8.448;2023-06-19T12:52:36;2.05;;;1.77;;
37237;SDS011;23129;49.662;8.448;2023-06-19T12:55:05;1.85;;;1.75;;
37237;SDS011;23129;49.662;8.448;2023-06-19T12:57:34;2.60;;;1.95;;
37237;SDS011;23129;49.662;8.448;2023-06-19T13:00:03;4.28;;;2.00;;
37237;SDS011;23129;49.662;8.448;2023-06-19T13:02:34;1.95;;;1.85;;
37237;SDS011;23129;49.662;8.448;2023-06-19T13:05:03;4.80;;;2.08;;
37237;SDS011;23129;49.662;8.448;2023-06-19T13:07:32;2.28;;;2.00;;
37237;SDS011;23129;49.662;8.448;2023-06-19T13:10:02;4.07;;;1.98;;
37237;SDS011;23129;49.662;8.448;2023-06-19T13:12:33;2.53;;;2.10;;
37237;SDS011;23129;49.662;8.448;2023-06-19T13:15:01;3.10;;;1.83;;
37237;SDS011;23129;49.662;8.448;2023-06-19T13:17:31;1.80;;;1.70;;
37237;SDS011;23129;49.662;8.448;2023-06-19T13:20:00;3.42;;;1.85;;
37237;SDS011;23129;49.662;8.448;2023-06-19T13:22:30;5.72;;;2.05;;
37237;SDS011;23129;49.662;8.448;2023-06-19T13:24:59;3.30;;;1.77;;
37237;SDS011;23129;49.662;8.448;2023-06-19T13:27:30;2.92;;;1.40;;
37237;SDS011;23129;49.662;8.448;2023-06-19T13:29:59;1.70;;;1.58;;
37237;SDS011;23129;49.662;8.448;2023-06-19T13:32:28;1.95;;;1.85;;
37237;SDS011;23129;49.662;8.448;2023-06-19T13:34:57;2.10;;;2.00;;
37237;SDS011;23129;49.662;8.448;2023-06-19T13:37:26;2.13;;;2.00;;
37237;SDS011;23129;49.662;8.448;2023-06-19T13:39:54;3.53;;;1.55;;
37237;SDS011;23129;49.662;8.448;2023-06-19T13:42:23;5.43;;;2.15;;
37237;SDS011;23129;49.662;8.448;2023-06-19T13:44:54;2.33;;;1.98;;
37237;SDS011;23129;49.662;8.448;2023-06-19T13:47:22;11.73;;;1.60;;
37237;SDS011;23129;49.662;8.448;2023-06-19T13:49:52;2.83;;;2.20;;
37237;SDS011;23129;49.662;8.448;2023-06-19T13:52:21;2.45;;;1.95;;
37237;SDS011;23129;49.662;8.448;2023-06-19T13:54:50;2.53;;;2.10;;
37237;SDS011;23129;49.662;8.448;2023-06-19T13:57:21;4.43;;;2.33;;
37237;SDS011;23129;49.662;8.448;2023-06-19T13:59:50;2.85;;;2.35;;
37237;SDS011;23129;49.662;8.448;2023-06-19T14:02:20;3.08;;;2.30;;
37237;SDS011;23129;49.662;8.448;2023-06-19T14:04:48;2.97;;;2.75;;
37237;SDS011;23129;49.662;8.448;2023-06-19T14:07:17;2.50;;;2.30;;
37237;SDS011;23129;49.662;8.448;2023-06-19T14:09:48;4.60;;;2.55;;
37237;SDS011;23129;49.662;8.448;2023-06-19T14:12:19;2.78;;;2.35;;
37237;SDS011;23129;49.662;8.448;2023-06-19T14:14:48;4.57;;;2.55;;
37237;SDS011;23129;49.662;8.448;2023-06-19T14:17:20;4.75;;;2.47;;
37237;SDS011;23129;49.662;8.448;2023-06-19T14:19:48;3.55;;;3.25;;
37237;SDS011;23129;49.662;8.448;2023-06-19T14:22:17;3.80;;;2.75;;
37237;SDS011;23129;49.662;8.448;2023-06-19T14:24:46;3.20;;;2.90;;
37237;SDS011;23129;49.662;8.448;2023-06-19T14:27:14;5.00;;;2.42;;
37237;SDS011;23129;49.662;8.448;2023-06-19T14:29:43;3.88;;;2.30;;
37237;SDS011;23129;49.662;8.448;2023-06-19T14:32:12;8.98;;;2.65;;
37237;SDS011;23129;49.662;8.448;2023-06-19T14:34:42;2.47;;;2.17;;
37237;SDS011;23129;49.662;8.448;2023-06-19T14:37:10;2.85;;;2.47;;
37237;SDS011;23129;49.662;8.448;2023-06-19T14:39:39;2.60;;;2.40;;
37237;SDS011;23129;49.662;8.448;2023-06-19T14:42:08;2.67;;;2.47;;
37237;SDS011;23129;49.662;8.448;2023-06-19T14:44:37;2.25;;;2.15;;
37237;SDS011;23129;49.662;8.448;2023-06-19T14:47:05;6.45;;;2.92;;
37237;SDS011;23129;49.662;8.448;2023-06-19T14:49:34;2.92;;;2.63;;
37237;SDS011;23129;49.662;8.448;2023-06-19T14:52:06;2.75;;;2.47;;
37237;SDS011;23129;49.662;8.448;2023-06-19T14:54:35;5.03;;;2.35;;
37237;SDS011;23129;49.662;8.448;2023-06-19T14:57:04;3.65;;;2.83;;
37237;SDS011;23129;49.662;8.448;2023-06-19T14:59:33;4.50;;;2.50;;
37237;SDS011;23129;49.662;8.448;2023-06-19T15:02:02;3.63;;;2.55;;
37237;SDS011;23129;49.662;8.448;2023-06-19T15:04:33;2.60;;;2.40;;
37237;SDS011;23129;49.662;8.448;2023-06-19T15:07:01;3.15;;;2.80;;
37237;SDS011;23129;49.662;8.448;2023-06-19T15:09:32;5.47;;;2.97;;
37237;SDS011;23129;49.662;8.448;2023-06-19T15:12:00;3.30;;;3.00;;